Terminal Aerodrome Forecast
Issued by NWS

Home | Current Version | Previous Version | Text Only | Print | Product List | Glossary On
Versions: 1 2 3 4 5 6 7 8 9 10 11 12 13 14 15 16 17 18 19 20 21 22 23 24 25 26 27 28 29 30 31
000
FTUS44 KLIX 051200 AAA
TAFHUM
TAF AMD
KHUM 051218Z 0512/0612 32020KT P6SM SCT010 BKN050
     FM051300 32018G28KT P6SM OVC008
     FM051500 35019G28KT P6SM OVC012
      TEMPO 0515/0519 4SM -RA
     FM052000 36020G28KT P6SM OVC020
     FM060200 36015KT P6SM BKN020 OVC080=

USA.gov is the U.S. government's official web portal to all federal, state and local government web resources and services.